Time;durP1;ratioP1;P1;durP2;ratioP2;P2;SDS_P1;SDS_P2;PMS_P1;PMS_P2;Temp;Humidity;BMP_temperature;BMP_pressure;BME280_temperature;BME280_humidity;BME280_pressure;Samples;Min_cycle;Max_cycle;Signal;HPM_P1;HPM_P2
2021/11/26 00:00:52;;;;;;;87.20;40.80;;;;;;;2.38;78.44;97612.30;422740;1307;108843;-41
2021/11/26 00:11:00;;;;;;;84.40;40.90;;;;;;;2.30;78.48;97611.54;422485;1310;99330;-41
2021/11/26 00:21:08;;;;;;;63.30;35.70;;;;;;;2.28;78.32;97597.89;422508;1311;111501;-41
2021/11/26 00:31:15;;;;;;;57.60;32.60;;;;;;;2.45;78.52;97596.44;422431;1307;109573;-41
2021/11/26 00:41:22;;;;;;;79.10;40.10;;;;;;;2.54;78.71;97595.82;422714;1312;99379;-41
2021/11/26 00:51:31;;;;;;;81.00;42.90;;;;;;;2.50;78.59;97580.61;422638;1306;112475;-40
2021/11/26 01:01:38;;;;;;;85.30;40.90;;;;;;;2.37;78.49;97564.91;422913;1305;108999;-41
2021/11/26 01:11:48;;;;;;;88.40;42.10;;;;;;;2.24;78.52;97553.81;422604;1306;99325;-43
2021/11/26 01:21:55;;;;;;;81.40;39.70;;;;;;;2.20;78.67;97546.55;418536;1305;5686220;-41
2021/11/26 01:32:04;;;;;;;68.40;35.70;;;;;;;2.24;78.65;97533.19;422587;1307;108863;-40
2021/11/26 01:42:11;;;;;;;66.30;35.40;;;;;;;2.34;78.62;97521.59;422622;1306;99296;-41
2021/11/26 01:52:19;;;;;;;80.80;40.50;;;;;;;2.41;78.80;97516.90;422619;1310;108751;-41
2021/11/26 02:02:26;;;;;;;91.40;44.90;;;;;;;2.46;78.79;97512.70;422357;1305;99315;-41
2021/11/26 02:12:34;;;;;;;91.60;42.60;;;;;;;2.45;78.75;97519.98;422832;1306;112425;-41
2021/11/26 02:22:41;;;;;;;83.60;41.20;;;;;;;2.28;78.58;97514.80;422521;1307;108922;-41
2021/11/26 02:32:51;;;;;;;87.80;45.30;;;;;;;2.14;78.86;97520.34;423135;1294;99931;-40
2021/11/26 02:42:59;;;;;;;66.40;33.60;;;;;;;2.12;78.73;97503.87;422560;1306;112480;-40
2021/11/26 02:53:07;;;;;;;59.30;32.40;;;;;;;2.17;78.69;97488.14;422587;1306;109007;-40
2021/11/26 03:03:15;;;;;;;78.00;38.90;;;;;;;2.29;78.79;97477.02;422398;1306;99132;-42
2021/11/26 03:13:22;;;;;;;85.70;41.80;;;;;;;2.28;78.83;97465.99;422792;1306;108950;-40
2021/11/26 03:23:29;;;;;;;83.30;40.80;;;;;;;2.19;79.04;97470.69;422580;1306;99321;-40
2021/11/26 03:33:37;;;;;;;83.50;42.10;;;;;;;2.08;78.98;97469.48;422750;1305;112432;-41
2021/11/26 03:43:45;;;;;;;64.70;34.20;;;;;;;1.98;78.94;97447.73;422525;1308;107964;-41
2021/11/26 03:53:52;;;;;;;96.60;42.60;;;;;;;2.05;79.02;97435.80;422390;1306;99389;-42
2021/11/26 04:03:59;;;;;;;72.60;36.70;;;;;;;2.03;78.99;97420.24;422576;1305;112772;-41
2021/11/26 04:14:06;;;;;;;102.70;47.50;;;;;;;1.98;79.06;97419.63;422200;1308;109004;-41
2021/11/26 04:24:13;;;;;;;94.30;44.80;;;;;;;1.93;79.18;97393.29;422597;1306;99347;-44
2021/11/26 04:34:21;;;;;;;101.80;43.60;;;;;;;1.87;79.32;97386.79;422446;1305;112758;-42
2021/11/26 04:44:28;;;;;;;115.10;50.60;;;;;;;1.85;79.33;97392.86;422571;1305;108751;-41
2021/11/26 04:54:37;;;;;;;98.00;47.00;;;;;;;1.85;79.15;97380.14;422417;1305;99283;-41
2021/11/26 05:04:44;;;;;;;82.20;42.70;;;;;;;1.96;79.15;97359.87;422626;1305;112630;-41
2021/11/26 05:14:51;;;;;;;98.80;49.50;;;;;;;2.18;79.39;97339.37;422480;1305;108143;-42
2021/11/26 05:24:58;;;;;;;103.70;50.60;;;;;;;2.29;79.42;97335.21;422550;1305;99439;-41
2021/11/26 05:35:03;;;;;;;121.50;54.10;;;;;;;2.16;79.17;97321.52;422575;1305;112587;-40
2021/11/26 05:45:13;;;;;;;158.00;67.20;;;;;;;1.90;79.25;97317.10;422361;1305;108883;-41
2021/11/26 05:55:22;;;;;;;139.90;68.20;;;;;;;1.83;79.32;97307.30;422599;1305;99401;-41
2021/11/26 06:05:29;;;;;;;89.00;43.90;;;;;;;1.86;79.36;97300.46;422299;1305;112232;-41
2021/11/26 06:15:35;;;;;;;87.60;47.60;;;;;;;2.05;79.30;97312.30;422430;1305;108929;-41
2021/11/26 06:25:42;;;;;;;123.00;56.30;;;;;;;2.23;79.34;97304.44;422143;1305;99293;-40
2021/11/26 06:35:50;;;;;;;149.80;61.80;;;;;;;2.19;79.32;97304.46;422551;1305;108885;-39
2021/11/26 06:45:57;;;;;;;108.00;52.40;;;;;;;2.10;79.26;97310.35;422246;1305;99376;-40
2021/11/26 06:56:03;;;;;;;110.70;53.20;;;;;;;2.03;79.33;97301.64;422578;1306;98362;-40
2021/11/26 07:06:10;;;;;;;102.30;49.50;;;;;;;2.04;79.22;97302.99;422309;1305;112428;-40
2021/11/26 07:16:18;;;;;;;92.30;45.20;;;;;;;2.13;79.28;97303.85;422462;1305;108785;-41
2021/11/26 07:26:26;;;;;;;101.00;49.10;;;;;;;2.21;79.27;97295.50;422137;1305;99316;-40
2021/11/26 07:36:33;;;;;;;100.80;50.80;;;;;;;2.25;79.40;97279.42;422693;1305;108765;-41
2021/11/26 07:46:41;;;;;;;100.20;49.00;;;;;;;2.25;79.34;97280.00;422474;1305;99377;-40
2021/11/26 07:56:48;;;;;;;104.50;53.10;;;;;;;2.22;79.30;97286.67;422357;1305;113017;-40
2021/11/26 08:06:55;;;;;;;89.60;50.20;;;;;;;2.22;79.28;97295.21;422480;1305;108890;-40
2021/11/26 08:17:03;;;;;;;75.10;40.50;;;;;;;2.31;79.12;97290.05;422191;1305;99288;-41
2021/11/26 08:27:10;;;;;;;91.30;45.80;;;;;;;2.41;79.23;97280.90;422263;1305;112505;-40
2021/11/26 08:37:17;;;;;;;101.50;47.70;;;;;;;2.41;79.32;97267.38;421920;1305;108867;-40
2021/11/26 08:47:24;;;;;;;121.60;54.60;;;;;;;2.34;79.53;97251.02;422027;1308;99289;-41
2021/11/26 08:57:33;;;;;;;187.40;88.10;;;;;;;2.35;79.41;97234.14;422253;1305;112562;-40
2021/11/26 09:07:41;;;;;;;59.40;31.60;;;;;;;2.46;79.25;97213.08;422190;1307;109734;-40
2021/11/26 09:17:47;;;;;;;74.70;36.20;;;;;;;2.61;79.23;97195.42;418022;1305;5600327;-40
2021/11/26 09:27:55;;;;;;;97.30;43.00;;;;;;;2.73;79.35;97181.34;422249;1305;112342;-41
2021/11/26 09:38:03;;;;;;;103.70;45.70;;;;;;;2.81;79.40;97166.84;422226;1305;109243;-41
2021/11/26 09:48:11;;;;;;;106.30;46.60;;;;;;;2.88;79.22;97138.95;422310;1305;99311;-41
2021/11/26 09:58:20;;;;;;;98.20;45.80;;;;;;;2.93;79.18;97123.94;422213;1305;112485;-41
2021/11/26 10:08:27;;;;;;;76.00;38.60;;;;;;;3.08;79.10;97099.80;422338;1305;108788;-41
2021/11/26 10:18:34;;;;;;;81.40;37.60;;;;;;;3.24;79.07;97069.10;422643;1305;99360;-48
2021/11/26 10:28:42;;;;;;;119.20;50.80;;;;;;;3.36;79.08;97053.35;422474;1305;112502;-40
2021/11/26 10:38:50;;;;;;;126.30;53.70;;;;;;;3.38;79.02;97031.66;422359;1305;108795;-40
2021/11/26 10:59:10;;;;;;;99.90;42.40;;;;;;;3.46;78.81;97000.42;422299;1305;108996;-40
2021/11/26 11:09:17;;;;;;;113.80;49.90;;;;;;;3.52;78.95;96985.52;422497;1305;99301;-41
2021/11/26 11:19:26;;;;;;;127.00;50.40;;;;;;;3.53;79.09;96968.03;422498;1308;112389;-41
2021/11/26 11:29:33;;;;;;;145.00;54.50;;;;;;;3.43;79.14;96956.02;422224;1306;108950;-41
2021/11/26 11:39:45;;;;;;;91.00;40.10;;;;;;;3.39;78.99;96932.20;422604;1305;99311;-39
2021/11/26 11:50:03;;;;;;;83.40;39.90;;;;;;;3.35;79.14;96912.36;422440;1305;111487;-40
2021/11/26 12:00:09;;;;;;;114.10;48.80;;;;;;;3.25;79.40;96897.52;422526;1305;108903;-40
2021/11/26 12:10:18;;;;;;;139.00;59.10;;;;;;;3.17;79.53;96885.33;422582;1305;99289;-41
2021/11/26 12:20:26;;;;;;;85.10;43.30;;;;;;;3.17;79.50;96863.34;422371;1306;112508;-40
2021/11/26 12:30:34;;;;;;;73.80;36.70;;;;;;;3.24;79.51;96844.05;422863;1305;108930;-40
2021/11/26 12:40:47;;;;;;;99.40;48.20;;;;;;;3.19;79.70;96831.58;422531;1305;99270;-40
2021/11/26 12:51:07;;;;;;;123.20;54.80;;;;;;;3.05;79.93;96820.58;422462;1305;109581;-40
2021/11/26 13:01:14;;;;;;;93.80;46.10;;;;;;;2.97;79.78;96804.05;422284;1305;99292;-40
2021/11/26 13:11:20;;;;;;;88.90;43.70;;;;;;;2.94;80.09;96781.48;422387;1305;112221;-41
2021/11/26 13:21:29;;;;;;;80.10;39.10;;;;;;;2.93;80.22;96772.48;422621;1305;108741;-40
2021/11/26 13:31:43;;;;;;;134.30;59.20;;;;;;;2.77;80.48;96763.77;422551;1305;99314;-40
2021/11/26 13:41:51;;;;;;;85.30;44.20;;;;;;;2.66;80.66;96754.56;422588;1305;108368;-39
2021/11/26 13:52:03;;;;;;;81.50;41.70;;;;;;;2.58;80.79;96750.35;422683;1305;98076;-40
2021/11/26 14:12:37;;;;;;;117.30;52.80;;;;;;;2.42;81.19;96724.84;422579;1305;108859;-41
2021/11/26 14:22:46;;;;;;;86.70;42.60;;;;;;;2.32;81.23;96713.82;422567;1305;99289;-40
2021/11/26 14:32:54;;;;;;;82.60;38.20;;;;;;;2.09;81.09;96703.56;422477;1305;108929;-41
2021/11/26 14:43:09;;;;;;;89.70;45.10;;;;;;;1.81;81.28;96677.33;422386;1305;99313;-43
2021/11/26 14:53:19;;;;;;;100.60;45.90;;;;;;;1.54;81.39;96666.50;422618;1305;112480;-41
2021/11/26 15:03:26;;;;;;;107.70;51.30;;;;;;;1.34;81.43;96661.74;422709;1305;107954;-41
2021/11/26 15:13:33;;;;;;;87.80;42.50;;;;;;;1.19;81.44;96642.95;422557;1306;99942;-40
2021/11/26 15:23:41;;;;;;;78.20;40.90;;;;;;;1.15;81.47;96630.08;422600;1305;112308;-41
2021/11/26 15:33:48;;;;;;;64.80;35.50;;;;;;;1.13;81.60;96618.26;422780;1305;108958;-41
2021/11/26 15:43:56;;;;;;;106.60;49.90;;;;;;;1.11;81.84;96601.50;422646;1305;98412;-40
2021/11/26 15:54:03;;;;;;;95.70;47.00;;;;;;;0.95;81.81;96583.48;422708;1312;108993;-42
2021/11/26 16:04:10;;;;;;;71.80;40.10;;;;;;;0.78;81.72;96567.40;422261;1305;98896;-41
2021/11/26 16:14:17;;;;;;;66.20;37.10;;;;;;;0.69;82.00;96553.77;422568;1305;112981;-41
2021/11/26 16:24:24;;;;;;;65.50;34.70;;;;;;;0.69;82.14;96537.68;422606;1305;108882;-41
2021/11/26 16:34:33;;;;;;;63.30;33.90;;;;;;;0.70;82.30;96518.52;422493;1307;99281;-41
2021/11/26 16:44:44;;;;;;;84.00;41.80;;;;;;;0.75;82.53;96499.63;422887;1305;108880;-40
2021/11/26 17:04:59;;;;;;;67.10;35.00;;;;;;;0.54;82.54;96464.26;422561;1312;112727;-41
2021/11/26 17:15:08;;;;;;;52.00;31.00;;;;;;;0.61;82.63;96448.83;418425;1306;5686282;-40
2021/11/26 17:25:15;;;;;;;51.90;28.20;;;;;;;0.66;82.73;96434.91;422665;1305;99306;-40
2021/11/26 17:35:23;;;;;;;50.60;28.50;;;;;;;0.73;82.85;96423.51;422586;1305;108807;-40
2021/11/26 17:45:30;;;;;;;97.70;45.50;;;;;;;0.77;82.75;96409.98;422312;1306;99317;-39
2021/11/26 17:55:37;;;;;;;78.00;38.80;;;;;;;0.67;82.97;96391.58;422561;1306;112376;-40
2021/11/26 18:15:54;;;;;;;63.60;34.10;;;;;;;0.54;83.06;96369.52;422279;1312;99309;-40
2021/11/26 18:26:02;;;;;;;56.20;32.90;;;;;;;0.66;82.92;96366.30;422544;1305;108879;-41
2021/11/26 18:36:18;;;;;;;58.80;32.20;;;;;;;0.72;83.12;96365.90;422572;1312;99365;-40
2021/11/26 18:46:26;;;;;;;59.00;36.30;;;;;;;0.70;83.04;96357.77;422355;1311;113227;-41
2021/11/26 18:56:33;;;;;;;82.70;40.60;;;;;;;0.70;83.44;96352.99;422693;1312;108568;-40
2021/11/26 19:06:40;;;;;;;71.10;36.10;;;;;;;0.63;83.45;96338.14;422660;1308;100001;-42
2021/11/26 19:16:48;;;;;;;57.90;31.60;;;;;;;0.54;83.50;96321.15;422498;1312;112663;-41
2021/11/26 19:26:55;;;;;;;57.60;28.10;;;;;;;0.59;83.43;96301.35;422552;1308;107880;-39
2021/11/26 19:37:03;;;;;;;53.40;28.20;;;;;;;0.62;83.47;96285.59;422439;1307;100055;-42
2021/11/26 19:47:10;;;;;;;39.10;25.00;;;;;;;0.64;83.54;96269.03;422503;1306;108883;-39
2021/11/26 19:57:18;;;;;;;55.00;28.60;;;;;;;0.59;83.71;96260.51;422374;1308;99336;-41
2021/11/26 20:07:24;;;;;;;60.00;28.80;;;;;;;0.48;83.94;96255.99;422343;1305;112466;-39
2021/11/26 20:17:36;;;;;;;45.50;23.10;;;;;;;0.44;83.94;96252.65;422608;1305;109155;-40
2021/11/26 20:27:43;;;;;;;38.30;20.10;;;;;;;0.44;84.25;96237.98;422368;1306;99292;-40
2021/11/26 20:37:50;;;;;;;39.00;22.30;;;;;;;0.48;84.18;96232.48;422587;1312;108888;-40
2021/11/26 20:58:03;;;;;;;39.80;20.80;;;;;;;0.52;84.14;96218.90;422372;1307;112135;-41
2021/11/26 21:08:11;;;;;;;41.40;21.10;;;;;;;0.49;84.37;96212.23;422558;1305;108959;-39
2021/11/26 21:18:18;;;;;;;41.20;22.00;;;;;;;0.47;84.74;96198.60;422159;1305;98089;-40
2021/11/26 21:28:26;;;;;;;70.40;33.20;;;;;;;0.42;84.63;96198.33;422639;1305;108049;-41
2021/11/26 21:38:32;;;;;;;45.20;22.50;;;;;;;0.34;84.77;96193.41;422371;1306;99286;-41
2021/11/26 21:58:49;;;;;;;37.50;21.00;;;;;;;0.37;84.97;96179.55;422243;1307;109427;-40
2021/11/26 22:08:57;;;;;;;31.00;18.30;;;;;;;0.40;84.99;96177.60;422465;1305;99203;-41
2021/11/26 22:19:05;;;;;;;37.30;18.80;;;;;;;0.41;85.18;96172.14;422637;1305;108921;-40
2021/11/26 22:39:18;;;;;;;47.80;24.60;;;;;;;0.36;85.39;96173.28;422143;1311;112932;-40
2021/11/26 22:59:32;;;;;;;39.40;21.60;;;;;;;0.31;85.45;96177.45;422668;1305;98894;-40
2021/11/26 23:09:39;;;;;;;32.10;17.40;;;;;;;0.37;85.24;96187.41;422214;1305;109201;-41
2021/11/26 23:19:46;;;;;;;22.20;15.10;;;;;;;0.43;85.24;96188.66;422585;1305;99306;-40
2021/11/26 23:29:54;;;;;;;19.30;12.70;;;;;;;0.47;85.41;96192.09;422398;1305;112791;-41
2021/11/26 23:40:01;;;;;;;25.10;15.20;;;;;;;0.48;85.48;96206.11;422386;1308;109026;-41
2021/11/26 23:50:12;;;;;;;19.80;12.50;;;;;;;0.42;85.57;96201.48;422325;1305;99321;-41
